createdAt,value
2022-10-19T00:00:51.149Z,58.31
2022-10-19T00:01:51.210Z,57.19
2022-10-19T00:02:51.131Z,59.09
2022-10-19T00:03:51.164Z,60.73
2022-10-19T00:04:51.135Z,59.45
2022-10-19T00:05:51.113Z,61.10
2022-10-19T00:06:51.094Z,57.33
2022-10-19T00:07:51.092Z,59.57
2022-10-19T00:08:51.067Z,57.46
2022-10-19T00:09:51.067Z,58.31
2022-10-19T00:10:51.088Z,57.73
2022-10-19T00:11:51.051Z,59.83
2022-10-19T00:12:51.061Z,59.18
2022-10-19T00:13:51.036Z,56.54
2022-10-19T00:14:51.021Z,58.50
2022-10-19T00:15:51.013Z,57.16
2022-10-19T00:16:51.029Z,56.81
2022-10-19T00:17:51.048Z,57.34
2022-10-19T00:18:50.987Z,60.34
2022-10-19T00:19:50.979Z,59.02
2022-10-19T00:20:50.972Z,59.82
2022-10-19T00:22:50.970Z,60.34
2022-10-19T00:23:50.955Z,55.74
2022-10-19T00:24:50.944Z,60.04
2022-10-19T00:25:50.953Z,57.43
2022-10-19T00:26:50.947Z,59.33
2022-10-19T00:27:50.942Z,58.87
2022-10-19T00:28:51.025Z,58.85
2022-10-19T00:29:50.898Z,56.42
2022-10-19T00:30:50.908Z,58.03
2022-10-19T00:31:50.882Z,60.94
2022-10-19T00:32:50.887Z,56.78
2022-10-19T00:33:50.886Z,57.08
2022-10-19T00:34:50.878Z,58.27
2022-10-19T00:35:50.849Z,57.49
2022-10-19T00:36:50.853Z,58.04
2022-10-19T00:37:50.825Z,57.73
2022-10-19T00:38:50.837Z,57.27
2022-10-19T00:40:50.815Z,58.91
2022-10-19T00:41:50.798Z,58.19
2022-10-19T00:42:50.797Z,58.22
2022-10-19T00:43:50.782Z,58.29
2022-10-19T00:44:50.794Z,57.69
2022-10-19T00:45:50.765Z,57.10
2022-10-19T00:46:50.753Z,56.98
2022-10-19T00:47:50.746Z,58.70
2022-10-19T00:48:50.747Z,58.68
2022-10-19T00:49:50.731Z,59.59
2022-10-19T00:50:50.740Z,57.39
2022-10-19T00:51:50.713Z,59.35
2022-10-19T00:52:50.702Z,57.49
2022-10-19T00:53:50.698Z,59.41
2022-10-19T00:54:50.692Z,57.13
2022-10-19T00:55:50.681Z,57.55
2022-10-19T00:56:50.704Z,59.01
2022-10-19T00:58:50.666Z,56.21
2022-10-19T00:59:50.654Z,59.31
2022-10-19T01:00:50.683Z,59.75
2022-10-19T01:01:50.642Z,58.00
2022-10-19T01:02:50.694Z,57.92
2022-10-19T01:03:50.634Z,57.36
2022-10-19T01:04:50.613Z,58.73
2022-10-19T01:05:50.607Z,59.40
2022-10-19T01:07:50.592Z,56.47
2022-10-19T01:08:50.607Z,57.04
2022-10-19T01:09:50.582Z,58.02
2022-10-19T01:10:50.574Z,56.83
2022-10-19T01:11:50.564Z,59.24
2022-10-19T01:12:50.557Z,58.39
2022-10-19T01:13:50.556Z,58.84
2022-10-19T01:14:50.574Z,60.47
2022-10-19T01:15:50.636Z,58.79
2022-10-19T01:16:50.521Z,57.74
2022-10-19T01:17:50.517Z,57.84
2022-10-19T01:18:50.536Z,57.64
2022-10-19T01:19:50.493Z,61.82
2022-10-19T01:20:50.521Z,59.61
2022-10-19T01:21:50.483Z,58.35
2022-10-19T01:22:50.475Z,58.54
2022-10-19T01:23:50.471Z,60.85
2022-10-19T01:24:50.505Z,59.27
2022-10-19T01:25:50.460Z,61.93
2022-10-19T01:26:50.480Z,60.33
2022-10-19T01:27:50.446Z,61.59
2022-10-19T01:28:50.535Z,59.28
2022-10-19T01:29:50.421Z,61.25
2022-10-19T01:30:50.441Z,59.42
2022-10-19T01:31:50.420Z,59.82
2022-10-19T01:32:50.397Z,58.16
2022-10-19T01:33:50.451Z,59.40
2022-10-19T01:34:50.387Z,60.39
2022-10-19T01:35:50.380Z,58.55
2022-10-19T01:36:50.375Z,60.17
2022-10-19T01:37:50.365Z,63.41
2022-10-19T01:38:50.380Z,61.90
2022-10-19T01:39:50.363Z,63.19
2022-10-19T01:40:50.392Z,60.20
2022-10-19T01:41:50.331Z,60.38
2022-10-19T01:42:50.375Z,60.53
2022-10-19T01:43:50.320Z,59.22
2022-10-19T01:44:50.312Z,59.43
2022-10-19T01:45:50.309Z,58.25
2022-10-19T01:46:50.308Z,59.31
2022-10-19T01:47:50.288Z,62.40
2022-10-19T01:48:50.279Z,63.84
2022-10-19T01:49:50.274Z,61.87
2022-10-19T01:50:50.269Z,60.43
2022-10-19T01:51:50.294Z,59.77
2022-10-19T01:52:50.255Z,57.83
2022-10-19T01:53:50.240Z,61.48
2022-10-19T01:54:50.233Z,62.98
2022-10-19T01:55:50.222Z,59.52
2022-10-19T01:56:50.234Z,61.37
2022-10-19T01:57:50.222Z,60.74
2022-10-19T01:58:50.206Z,60.80
2022-10-19T01:59:50.195Z,62.12
2022-10-19T02:00:50.276Z,61.84
2022-10-19T02:01:50.177Z,62.22
2022-10-19T02:02:50.277Z,60.46
2022-10-19T02:03:50.180Z,61.94
2022-10-19T02:04:50.165Z,60.54
2022-10-19T02:05:50.170Z,63.94
2022-10-19T02:06:50.202Z,62.66
2022-10-19T02:07:50.138Z,64.05
2022-10-19T02:08:50.130Z,61.82
2022-10-19T02:09:50.111Z,61.12
2022-10-19T02:10:50.121Z,58.45
2022-10-19T02:11:51.336Z,62.76
2022-10-19T02:12:50.116Z,59.40
2022-10-19T02:13:50.107Z,63.31
2022-10-19T02:14:50.102Z,61.55
2022-10-19T02:15:50.074Z,62.12
2022-10-19T02:16:50.066Z,61.23
2022-10-19T02:17:50.061Z,64.03
2022-10-19T02:18:50.084Z,62.07
2022-10-19T02:19:50.040Z,61.13
2022-10-19T02:20:50.041Z,61.50
2022-10-19T02:21:50.032Z,63.68
2022-10-19T02:22:50.030Z,63.73
2022-10-19T02:23:51.887Z,61.94
2022-10-19T02:24:50.026Z,63.36
2022-10-19T02:25:50.001Z,62.18
2022-10-19T02:26:50.028Z,60.54
2022-10-19T02:27:50.020Z,61.85
2022-10-19T02:28:49.982Z,63.24
2022-10-19T02:29:49.968Z,61.73
2022-10-19T02:30:49.973Z,60.47
2022-10-19T02:31:49.960Z,64.79
2022-10-19T02:32:49.959Z,61.90
2022-10-19T02:33:49.968Z,61.11
2022-10-19T02:34:49.937Z,59.48
2022-10-19T02:35:49.925Z,59.09
2022-10-19T02:36:49.921Z,60.91
2022-10-19T02:37:49.913Z,62.86
2022-10-19T02:38:49.909Z,62.07
2022-10-19T02:39:49.921Z,62.13
2022-10-19T02:40:49.898Z,63.29
2022-10-19T02:41:49.886Z,64.84
2022-10-19T02:42:49.903Z,65.23
2022-10-19T02:43:49.890Z,64.48
2022-10-19T02:44:49.871Z,63.59
2022-10-19T02:45:49.877Z,63.50
2022-10-19T02:46:49.877Z,61.90
2022-10-19T02:47:49.841Z,64.13
2022-10-19T02:48:49.845Z,63.15
2022-10-19T02:49:49.834Z,63.97
2022-10-19T02:50:49.822Z,63.39
2022-10-19T02:51:49.815Z,58.20
2022-10-19T02:52:49.833Z,60.99
2022-10-19T02:53:49.802Z,62.65
2022-10-19T02:54:49.792Z,62.42
2022-10-19T02:55:49.785Z,60.52
2022-10-19T02:56:49.781Z,64.17
2022-10-19T02:57:49.822Z,62.41
2022-10-19T02:58:49.798Z,61.70
2022-10-19T02:59:49.757Z,61.76
2022-10-19T03:00:49.873Z,63.80
2022-10-19T03:01:49.742Z,63.96
2022-10-19T03:02:49.738Z,62.26
2022-10-19T03:03:49.780Z,61.35
2022-10-19T03:04:49.774Z,63.35
2022-10-19T03:05:49.707Z,61.98
2022-10-19T03:06:49.709Z,62.12
2022-10-19T03:07:49.695Z,62.43
2022-10-19T03:08:49.700Z,61.55
2022-10-19T03:09:49.687Z,63.57
2022-10-19T03:10:49.691Z,61.88
2022-10-19T03:11:49.667Z,64.96
2022-10-19T03:12:49.651Z,63.79
2022-10-19T03:13:49.649Z,64.22
2022-10-19T03:14:49.661Z,62.54
2022-10-19T03:15:49.632Z,63.81
2022-10-19T03:16:49.620Z,64.64
2022-10-19T03:17:49.636Z,63.26
2022-10-19T03:18:49.603Z,63.78
2022-10-19T03:19:49.604Z,62.33
2022-10-19T03:20:49.596Z,63.25
2022-10-19T03:21:49.581Z,62.74
2022-10-19T03:22:49.604Z,62.08
2022-10-19T03:23:49.588Z,62.09
2022-10-19T03:24:49.601Z,62.48
2022-10-19T03:25:49.556Z,65.16
2022-10-19T03:26:49.551Z,64.75
2022-10-19T03:27:49.539Z,64.79
2022-10-19T03:28:49.559Z,63.72
2022-10-19T03:29:49.531Z,64.32
2022-10-19T03:30:49.532Z,63.61
2022-10-19T03:31:49.510Z,62.86
2022-10-19T03:32:49.505Z,63.80
2022-10-19T03:33:49.517Z,63.42
2022-10-19T03:34:49.490Z,64.41
2022-10-19T03:35:49.471Z,63.72
2022-10-19T03:36:49.481Z,62.33
2022-10-19T03:37:49.470Z,64.25
2022-10-19T03:38:49.468Z,62.75
2022-10-19T03:39:49.465Z,64.94
2022-10-19T03:40:49.452Z,63.44
2022-10-19T03:41:49.437Z,64.40
2022-10-19T03:42:49.427Z,64.05
2022-10-19T03:43:49.475Z,63.79
2022-10-19T03:44:49.413Z,62.05
2022-10-19T03:45:49.413Z,64.39
2022-10-19T03:46:49.401Z,65.18
2022-10-19T03:47:49.447Z,62.60
2022-10-19T03:48:49.383Z,64.45
2022-10-19T03:49:49.411Z,63.04
2022-10-19T03:50:49.369Z,65.44
2022-10-19T03:51:49.361Z,63.48
2022-10-19T03:52:49.435Z,63.16
2022-10-19T03:53:49.361Z,64.18
2022-10-19T03:54:49.331Z,64.33
2022-10-19T03:55:49.327Z,65.37
2022-10-19T03:56:49.355Z,66.26
2022-10-19T03:57:49.335Z,63.83
2022-10-19T03:58:49.309Z,64.70
2022-10-19T03:59:49.320Z,63.81
2022-10-19T04:00:49.353Z,65.13
2022-10-19T04:01:49.310Z,66.48
2022-10-19T04:02:49.284Z,64.93
2022-10-19T04:03:49.277Z,65.28
2022-10-19T04:04:49.271Z,64.81
2022-10-19T04:05:49.261Z,64.95
2022-10-19T04:06:49.251Z,65.79
2022-10-19T04:07:49.263Z,65.94
2022-10-19T04:08:49.240Z,65.19
2022-10-19T04:09:49.243Z,64.46
2022-10-19T04:10:49.249Z,65.94
2022-10-19T04:11:49.214Z,66.10
2022-10-19T04:12:53.664Z,63.97
2022-10-19T04:13:49.199Z,63.76
2022-10-19T04:14:57.693Z,64.43
2022-10-19T04:15:50.202Z,65.59
2022-10-19T04:16:49.202Z,65.13
2022-10-19T04:17:49.173Z,66.33
2022-10-19T04:18:49.170Z,64.77
2022-10-19T04:19:49.158Z,66.87
2022-10-19T04:20:49.161Z,67.25
2022-10-19T04:21:49.146Z,63.06
2022-10-19T04:22:49.163Z,64.88
2022-10-19T04:23:49.127Z,65.67
2022-10-19T04:24:49.121Z,66.31
2022-10-19T04:25:49.120Z,64.58
2022-10-19T04:26:49.105Z,62.76
2022-10-19T04:27:49.096Z,64.01
2022-10-19T04:28:49.154Z,65.44
2022-10-19T04:29:49.101Z,63.82
2022-10-19T04:30:49.065Z,63.74
2022-10-19T04:31:49.069Z,64.49
2022-10-19T04:32:49.063Z,63.63
2022-10-19T04:33:49.060Z,65.09
2022-10-19T04:34:49.064Z,64.60
2022-10-19T04:35:49.037Z,64.54
2022-10-19T04:36:49.034Z,64.29
2022-10-19T04:37:49.018Z,63.49
2022-10-19T04:38:49.017Z,65.72
2022-10-19T04:39:49.000Z,64.73
2022-10-19T04:40:49.017Z,64.05
2022-10-19T04:41:48.985Z,66.16
2022-10-19T04:42:48.981Z,63.69
2022-10-19T04:43:48.981Z,63.47
2022-10-19T04:44:48.969Z,64.78
2022-10-19T04:45:48.954Z,63.67
2022-10-19T04:46:48.971Z,65.23
2022-10-19T04:47:48.938Z,64.15
2022-10-19T04:48:48.937Z,64.62
2022-10-19T04:49:48.927Z,64.41
2022-10-19T04:50:48.925Z,64.86
2022-10-19T04:51:48.923Z,64.01
2022-10-19T04:52:48.913Z,64.59
2022-10-19T04:53:48.894Z,64.24
2022-10-19T04:54:48.908Z,63.49
2022-10-19T04:55:48.881Z,64.50
2022-10-19T04:56:48.876Z,65.66
2022-10-19T04:57:48.872Z,64.01
2022-10-19T04:58:48.851Z,64.93
2022-10-19T04:59:48.838Z,63.65
2022-10-19T05:00:48.875Z,64.29
2022-10-19T05:01:48.852Z,64.75
2022-10-19T05:02:48.833Z,64.48
2022-10-19T05:03:48.851Z,63.28
2022-10-19T05:04:48.857Z,63.30
2022-10-19T05:05:48.796Z,63.09
2022-10-19T05:06:48.788Z,62.89
2022-10-19T05:07:48.787Z,64.32
2022-10-19T05:08:48.784Z,64.79
2022-10-19T05:09:48.791Z,64.57
2022-10-19T05:10:48.781Z,64.40
2022-10-19T05:11:48.754Z,64.14
2022-10-19T05:12:48.741Z,64.18
2022-10-19T05:13:48.734Z,65.99
2022-10-19T05:14:48.796Z,63.05
2022-10-19T05:15:48.721Z,63.17
2022-10-19T05:16:48.724Z,65.20
2022-10-19T05:17:48.708Z,65.33
2022-10-19T05:18:48.705Z,64.55
2022-10-19T05:19:48.700Z,65.78
2022-10-19T05:20:48.710Z,64.79
2022-10-19T05:21:48.681Z,64.14
2022-10-19T05:22:48.682Z,65.58
2022-10-19T05:23:48.673Z,65.55
2022-10-19T05:24:48.667Z,64.68
2022-10-19T05:25:48.668Z,65.32
2022-10-19T05:26:48.667Z,64.86
2022-10-19T05:27:48.640Z,65.21
2022-10-19T05:28:48.685Z,64.92
2022-10-19T05:29:48.624Z,64.87
2022-10-19T05:30:49.126Z,63.69
2022-10-19T05:31:48.640Z,63.54
2022-10-19T05:32:48.603Z,64.35
2022-10-19T05:33:48.595Z,65.62
2022-10-19T05:34:48.585Z,65.18
2022-10-19T05:35:48.587Z,64.59
2022-10-19T05:36:48.569Z,64.77
2022-10-19T05:37:48.582Z,64.47
2022-10-19T05:38:48.558Z,65.68
2022-10-19T05:39:48.545Z,64.75
2022-10-19T05:40:52.954Z,64.25
2022-10-19T05:41:49.529Z,64.80
2022-10-19T05:42:48.530Z,64.31
2022-10-19T05:43:48.527Z,64.30
2022-10-19T05:44:48.542Z,64.91
2022-10-19T05:45:48.499Z,64.67
2022-10-19T05:46:48.494Z,66.27
2022-10-19T05:47:48.490Z,64.58
2022-10-19T05:48:48.481Z,64.88
2022-10-19T05:49:48.473Z,63.67
2022-10-19T05:50:48.484Z,64.71
2022-10-19T05:51:48.453Z,63.71
2022-10-19T05:52:48.455Z,63.73
2022-10-19T05:53:48.466Z,64.24
2022-10-19T05:54:48.445Z,64.18
2022-10-19T05:55:48.442Z,64.50
2022-10-19T05:56:48.423Z,65.00
2022-10-19T05:57:48.461Z,64.27
2022-10-19T05:58:48.399Z,63.91
2022-10-19T05:59:48.397Z,65.19
2022-10-19T06:00:48.390Z,64.58
2022-10-19T06:01:48.434Z,65.53
2022-10-19T06:02:48.373Z,63.25
2022-10-19T06:03:48.384Z,64.31
2022-10-19T06:04:48.389Z,65.12
2022-10-19T06:05:48.362Z,63.10
2022-10-19T06:06:48.350Z,64.06
2022-10-19T06:07:48.344Z,64.67
2022-10-19T06:08:48.366Z,66.41
2022-10-19T06:09:48.337Z,66.20
2022-10-19T06:10:48.337Z,62.55
2022-10-19T06:11:48.319Z,65.38
2022-10-19T06:12:48.305Z,66.37
2022-10-19T06:13:48.324Z,66.58
2022-10-19T06:14:48.360Z,64.28
2022-10-19T06:15:48.294Z,64.28
2022-10-19T06:16:48.281Z,64.21
2022-10-19T06:17:48.263Z,64.92
2022-10-19T06:18:48.274Z,64.56
2022-10-19T06:19:48.255Z,65.72
2022-10-19T06:20:48.273Z,65.89
2022-10-19T06:21:48.264Z,64.22
2022-10-19T06:22:48.234Z,61.91
2022-10-19T06:23:48.237Z,63.50
2022-10-19T06:24:48.225Z,61.87
2022-10-19T06:25:48.214Z,64.14
2022-10-19T06:26:48.226Z,64.76
2022-10-19T06:27:48.228Z,65.84
2022-10-19T06:28:48.194Z,63.86
2022-10-19T06:29:48.179Z,66.15
2022-10-19T06:30:48.260Z,65.91
2022-10-19T06:31:48.183Z,65.33
2022-10-19T06:32:48.261Z,63.75
2022-10-19T06:33:49.471Z,65.15
2022-10-19T06:34:48.841Z,64.39
2022-10-19T06:35:48.153Z,63.55
2022-10-19T06:36:48.136Z,63.56
2022-10-19T06:37:48.121Z,64.74
2022-10-19T06:38:48.150Z,64.49
2022-10-19T06:39:48.145Z,65.05
2022-10-19T06:40:48.105Z,63.34
2022-10-19T06:41:48.101Z,65.01
2022-10-19T06:42:48.110Z,62.20
2022-10-19T06:43:48.090Z,63.18
2022-10-19T06:44:48.100Z,65.19
2022-10-19T06:45:48.093Z,65.21
2022-10-19T06:46:48.067Z,65.30
2022-10-19T06:48:48.045Z,66.97
2022-10-19T06:49:48.070Z,64.53
2022-10-19T06:50:48.034Z,65.50
2022-10-19T06:51:48.030Z,65.95
2022-10-19T06:52:48.014Z,64.15
2022-10-19T06:53:49.708Z,65.39
2022-10-19T06:54:49.014Z,63.95
2022-10-19T06:55:48.000Z,64.75
2022-10-19T06:57:47.978Z,64.37
2022-10-19T06:58:47.973Z,64.46
2022-10-19T06:59:50.186Z,64.08
2022-10-19T07:00:48.012Z,63.79
2022-10-19T07:01:47.976Z,62.57
2022-10-19T07:02:47.939Z,63.13
2022-10-19T07:03:47.929Z,62.13
2022-10-19T07:04:47.929Z,62.71
2022-10-19T07:05:47.916Z,63.31
2022-10-19T07:06:47.915Z,61.29
2022-10-19T07:07:47.947Z,60.95
2022-10-19T07:08:47.894Z,63.60
2022-10-19T07:09:47.887Z,64.00
2022-10-19T07:10:47.882Z,64.89
2022-10-19T07:11:47.862Z,63.52
2022-10-19T07:12:47.865Z,63.66
2022-10-19T07:13:47.880Z,64.91
2022-10-19T07:14:47.849Z,64.97
2022-10-19T07:15:47.834Z,65.24
2022-10-19T07:16:47.852Z,64.76
2022-10-19T07:17:47.830Z,63.93
2022-10-19T07:18:47.825Z,64.29
2022-10-19T07:19:47.813Z,64.26
2022-10-19T07:20:47.800Z,63.46
2022-10-19T07:21:47.785Z,61.96
2022-10-19T07:22:47.805Z,63.49
2022-10-19T07:23:47.799Z,63.38
2022-10-19T07:24:47.769Z,64.37
2022-10-19T07:25:47.762Z,65.10
2022-10-19T07:26:47.770Z,65.21
2022-10-19T07:27:47.755Z,65.60
2022-10-19T07:28:47.740Z,63.64
2022-10-19T07:29:47.742Z,62.64
2022-10-19T07:30:47.724Z,64.57
2022-10-19T07:31:47.712Z,63.07
2022-10-19T07:32:47.703Z,62.88
2022-10-19T07:33:47.692Z,64.03
2022-10-19T07:34:47.712Z,64.69
2022-10-19T07:35:47.690Z,62.92
2022-10-19T07:36:47.675Z,63.00
2022-10-19T07:37:47.669Z,62.15
2022-10-19T07:38:47.667Z,63.49
2022-10-19T07:39:47.650Z,62.64
2022-10-19T07:44:19.268Z,64.34
2022-10-19T07:45:19.252Z,65.07
2022-10-19T07:46:19.274Z,63.73
2022-10-19T07:47:19.264Z,62.09
2022-10-19T07:48:19.237Z,63.90
2022-10-19T07:49:19.229Z,61.90
2022-10-19T07:50:19.232Z,63.01
2022-10-19T07:51:19.252Z,63.70
2022-10-19T07:52:19.233Z,63.35
2022-10-19T07:53:19.197Z,63.85
2022-10-19T07:54:19.196Z,63.53
2022-10-19T07:55:19.209Z,62.17
2022-10-19T07:56:19.186Z,64.31
2022-10-19T07:57:19.182Z,63.10
2022-10-19T07:58:19.291Z,62.93
2022-10-19T07:59:19.176Z,63.16
2022-10-19T08:00:19.155Z,63.35
2022-10-19T08:01:19.136Z,62.46
2022-10-19T08:02:19.163Z,63.89
2022-10-19T08:04:13.848Z,62.55
2022-10-19T08:05:20.188Z,63.67
2022-10-19T08:06:19.095Z,62.25
2022-10-19T08:07:19.111Z,62.37
2022-10-19T08:08:19.083Z,63.19
2022-10-19T08:09:47.342Z,63.69
2022-10-19T08:10:20.108Z,63.49
2022-10-19T08:11:19.073Z,63.41
2022-10-19T08:12:19.064Z,62.99
2022-10-19T08:13:19.043Z,62.78
2022-10-19T08:14:19.041Z,64.18
2022-10-19T08:15:19.049Z,64.03
2022-10-19T08:16:19.023Z,62.64
2022-10-19T08:17:19.046Z,62.77
2022-10-19T08:18:19.050Z,62.71
2022-10-19T08:19:18.993Z,63.70
2022-10-19T08:20:19.002Z,63.47
2022-10-19T08:21:18.984Z,64.24
2022-10-19T08:22:18.973Z,62.84
2022-10-19T08:23:18.988Z,64.16
2022-10-19T08:24:18.988Z,64.17
2022-10-19T08:25:18.968Z,63.47
2022-10-19T08:26:18.950Z,63.61
2022-10-19T08:27:18.930Z,64.44
2022-10-19T08:28:18.931Z,62.74
2022-10-19T08:29:18.963Z,62.86
2022-10-19T08:30:18.919Z,62.07
2022-10-19T08:31:18.959Z,63.10
2022-10-19T08:32:18.894Z,62.43
2022-10-19T08:33:18.892Z,62.71
2022-10-19T08:34:18.900Z,62.39
2022-10-19T08:35:18.865Z,63.31
2022-10-19T08:36:18.864Z,64.01
2022-10-19T08:37:26.374Z,62.56
2022-10-19T08:38:19.846Z,64.05
2022-10-19T08:39:18.837Z,63.79
2022-10-19T08:40:18.835Z,63.10
2022-10-19T08:41:18.845Z,63.57
2022-10-19T08:42:18.811Z,64.68
2022-10-19T08:43:18.817Z,64.34
2022-10-19T08:44:18.799Z,63.43
2022-10-19T08:45:18.789Z,64.62
2022-10-19T08:46:18.800Z,64.56
2022-10-19T08:47:23.253Z,63.72
2022-10-19T08:48:18.783Z,64.30
2022-10-19T08:49:18.778Z,63.80
2022-10-19T08:50:18.753Z,61.00
2022-10-19T08:51:18.761Z,61.73
2022-10-19T08:52:18.761Z,64.01
2022-10-19T08:53:18.733Z,62.88
2022-10-19T08:54:18.722Z,62.61
2022-10-19T08:55:20.569Z,63.64
2022-10-19T08:56:38.863Z,62.53
2022-10-19T08:57:19.697Z,61.13
2022-10-19T08:58:18.688Z,62.61
2022-10-19T08:59:18.679Z,61.38
2022-10-19T09:00:18.682Z,62.42
2022-10-19T09:01:18.700Z,61.91
2022-10-19T09:02:18.660Z,59.83
2022-10-19T09:03:27.130Z,59.64
2022-10-19T09:04:19.652Z,58.14
2022-10-19T09:05:18.630Z,59.35
2022-10-19T09:06:18.628Z,59.79
2022-10-19T09:07:18.640Z,56.61
2022-10-19T09:08:18.606Z,57.84
2022-10-19T09:09:18.602Z,58.79
2022-10-19T09:10:18.589Z,59.76
2022-10-19T09:11:18.589Z,60.05
2022-10-19T09:12:18.577Z,58.10
2022-10-19T09:13:18.587Z,59.68
2022-10-19T09:14:18.554Z,58.64
2022-10-19T09:15:18.560Z,57.52
2022-10-19T09:16:18.538Z,58.18
2022-10-19T09:17:18.535Z,58.54
2022-10-19T09:18:18.549Z,60.92
2022-10-19T09:19:18.520Z,59.05
2022-10-19T09:20:18.561Z,58.02
2022-10-19T09:21:18.495Z,57.94
2022-10-19T09:22:18.498Z,59.48
2022-10-19T09:23:18.487Z,58.00
2022-10-19T09:24:18.498Z,59.03
2022-10-19T09:25:18.472Z,57.31
2022-10-19T09:26:18.464Z,58.68
2022-10-19T09:27:18.458Z,58.09
2022-10-19T09:28:18.465Z,57.76
2022-10-19T09:29:18.441Z,58.74
2022-10-19T09:30:18.513Z,58.29
2022-10-19T09:31:18.426Z,60.09
2022-10-19T09:32:18.424Z,57.59
2022-10-19T09:33:18.430Z,58.07
2022-10-19T09:34:18.411Z,57.67
2022-10-19T09:35:18.425Z,57.00
2022-10-19T09:36:23.047Z,57.93
2022-10-19T09:37:25.708Z,58.39
2022-10-19T09:38:19.384Z,58.12
2022-10-19T09:39:18.370Z,57.44
2022-10-19T09:40:18.419Z,57.76
2022-10-19T09:41:18.378Z,56.76
2022-10-19T09:42:18.352Z,58.49
2022-10-19T09:43:18.342Z,58.32
2022-10-19T09:44:18.330Z,57.57
2022-10-19T09:45:18.331Z,58.91
2022-10-19T09:46:20.316Z,57.74
2022-10-19T09:47:18.344Z,58.75
2022-10-19T09:48:18.326Z,58.00
2022-10-19T09:49:18.298Z,57.04
2022-10-19T09:50:18.386Z,58.40
2022-10-19T09:51:18.314Z,58.41
2022-10-19T09:52:18.290Z,57.44
2022-10-19T09:53:18.271Z,57.36
2022-10-19T09:54:18.286Z,57.57
2022-10-19T09:55:18.260Z,57.95
2022-10-19T09:56:18.250Z,56.96
2022-10-19T09:57:18.266Z,57.50
2022-10-19T09:58:18.259Z,58.37
2022-10-19T09:59:18.230Z,57.47
2022-10-19T10:00:18.221Z,58.64
2022-10-19T10:01:18.240Z,58.87
2022-10-19T10:02:18.224Z,58.07
2022-10-19T10:03:18.207Z,57.44
2022-10-19T10:04:18.200Z,60.56
2022-10-19T10:05:18.197Z,58.60
2022-10-19T10:06:18.209Z,60.06
2022-10-19T10:07:18.184Z,58.03
2022-10-19T10:08:18.166Z,57.01
2022-10-19T10:09:18.169Z,57.89
2022-10-19T10:10:18.167Z,58.65
2022-10-19T10:11:18.180Z,57.54
2022-10-19T10:12:18.143Z,57.67
2022-10-19T10:13:18.131Z,57.04
2022-10-19T10:14:18.131Z,57.32
2022-10-19T10:15:18.121Z,57.90
2022-10-19T10:16:18.124Z,58.31
2022-10-19T10:17:18.134Z,58.94
2022-10-19T10:18:18.113Z,58.44
2022-10-19T10:19:18.117Z,58.76
2022-10-19T10:20:18.090Z,59.33
2022-10-19T10:21:20.537Z,59.14
2022-10-19T10:22:18.095Z,59.70
2022-10-19T10:23:18.066Z,59.66
2022-10-19T10:24:18.062Z,59.31
2022-10-19T10:25:18.082Z,59.29
2022-10-19T10:26:18.041Z,59.63
2022-10-19T10:27:18.031Z,60.03
2022-10-19T10:28:18.033Z,58.62
2022-10-19T10:29:18.027Z,60.71
2022-10-19T10:30:18.011Z,59.93
2022-10-19T10:31:18.034Z,59.74
2022-10-19T10:32:17.999Z,58.06
2022-10-19T10:33:26.910Z,60.78
2022-10-19T10:34:23.164Z,60.67
2022-10-19T10:35:18.981Z,59.31
2022-10-19T10:36:18.007Z,59.71
2022-10-19T10:37:17.967Z,60.25
2022-10-19T10:38:17.951Z,59.82
2022-10-19T10:39:17.962Z,59.75
2022-10-19T10:40:21.330Z,61.13
2022-10-19T10:41:17.974Z,61.26
2022-10-19T10:42:17.929Z,60.65
2022-10-19T10:43:17.925Z,59.57
2022-10-19T10:44:17.934Z,61.18
2022-10-19T10:45:17.910Z,59.69
2022-10-19T10:46:17.916Z,61.76
2022-10-19T10:47:17.923Z,62.45
2022-10-19T10:48:17.907Z,60.57
2022-10-19T10:49:17.872Z,61.73
2022-10-19T10:50:17.868Z,61.99
2022-10-19T10:51:17.889Z,64.18
2022-10-19T10:52:17.855Z,61.17
2022-10-19T10:53:17.856Z,60.83
2022-10-19T10:54:17.863Z,61.81
2022-10-19T10:55:17.836Z,60.62
2022-10-19T10:56:17.818Z,62.62
2022-10-19T10:57:17.849Z,61.73
2022-10-19T10:58:17.816Z,63.00
2022-10-19T10:59:17.814Z,60.72
2022-10-19T11:00:17.799Z,61.17
2022-10-19T11:01:17.799Z,60.37
2022-10-19T11:02:17.810Z,60.54
2022-10-19T11:03:17.764Z,60.04
2022-10-19T11:04:17.763Z,62.43
2022-10-19T11:05:17.772Z,61.27
2022-10-19T11:06:17.795Z,60.52
2022-10-19T11:07:17.747Z,60.25
2022-10-19T11:08:17.737Z,62.10
2022-10-19T11:09:17.737Z,60.84
2022-10-19T11:10:17.755Z,60.60
2022-10-19T11:11:17.715Z,60.42
2022-10-19T11:12:17.712Z,59.41
2022-10-19T11:13:17.694Z,59.77
2022-10-19T11:14:17.689Z,61.03
2022-10-19T11:15:17.775Z,60.71
2022-10-19T11:16:17.729Z,61.70
2022-10-19T11:17:17.664Z,60.71
2022-10-19T11:18:17.706Z,60.56
2022-10-19T11:19:17.649Z,61.83
2022-10-19T11:20:17.659Z,60.95
2022-10-19T11:21:17.653Z,60.09
2022-10-19T11:22:17.655Z,60.64
2022-10-19T11:23:17.634Z,60.74
2022-10-19T11:24:17.662Z,62.25
2022-10-19T11:25:17.598Z,61.53
2022-10-19T11:26:17.616Z,61.95
2022-10-19T11:27:17.631Z,60.39
2022-10-19T11:28:17.578Z,60.01
2022-10-19T11:29:17.566Z,61.32
2022-10-19T11:30:17.571Z,60.81
2022-10-19T11:31:17.564Z,61.67
2022-10-19T11:32:17.554Z,60.97
2022-10-19T11:33:17.573Z,62.47
2022-10-19T11:34:18.060Z,63.20
2022-10-19T11:35:17.528Z,61.54
2022-10-19T11:36:17.522Z,61.55
2022-10-19T11:37:17.519Z,60.13
2022-10-19T11:38:20.705Z,60.78
2022-10-19T11:39:18.514Z,62.21
2022-10-19T11:40:21.842Z,61.45
2022-10-19T11:41:18.607Z,59.47
2022-10-19T11:42:17.482Z,60.78
2022-10-19T11:43:17.467Z,62.11
2022-10-19T11:44:17.537Z,60.69
2022-10-19T11:45:17.452Z,60.18
2022-10-19T11:46:17.452Z,61.79
2022-10-19T11:47:17.445Z,61.50
2022-10-19T11:48:17.440Z,62.61
2022-10-19T11:49:17.435Z,61.77
2022-10-19T11:50:17.459Z,61.30
2022-10-19T11:51:21.809Z,61.86
2022-10-19T11:52:17.402Z,62.51
2022-10-19T11:53:17.392Z,62.46
2022-10-19T11:54:17.389Z,62.09
2022-10-19T11:55:17.408Z,61.53
2022-10-19T11:56:17.391Z,60.71
2022-10-19T11:57:17.368Z,59.34
2022-10-19T11:58:17.359Z,61.83
2022-10-19T11:59:17.386Z,63.06
2022-10-19T12:00:37.704Z,59.68
2022-10-19T12:01:18.355Z,61.62
2022-10-19T12:02:17.441Z,62.68
2022-10-19T12:03:17.329Z,61.43
2022-10-19T12:04:17.317Z,61.78
2022-10-19T12:05:17.306Z,61.87
2022-10-19T12:06:17.298Z,60.92
2022-10-19T12:07:17.312Z,63.17
2022-10-19T12:08:17.299Z,61.90
2022-10-19T12:09:17.351Z,61.53
2022-10-19T12:10:17.274Z,62.55
2022-10-19T12:11:17.273Z,62.21
2022-10-19T12:12:17.286Z,61.28
2022-10-19T12:13:17.249Z,60.09
2022-10-19T12:14:17.252Z,60.52
2022-10-19T12:15:17.335Z,62.58
2022-10-19T12:16:17.233Z,62.01
2022-10-19T12:17:17.237Z,59.51
2022-10-19T12:18:17.243Z,59.78
2022-10-19T12:19:17.215Z,60.32
2022-10-19T12:20:19.709Z,61.92
2022-10-19T12:21:17.200Z,61.71
2022-10-19T12:22:17.192Z,61.01
2022-10-19T12:23:17.190Z,61.77
2022-10-19T12:24:17.175Z,60.64
2022-10-19T12:25:17.174Z,61.73
2022-10-19T12:27:17.149Z,60.46
2022-10-19T12:28:17.167Z,62.54
2022-10-19T12:29:17.127Z,62.05
2022-10-19T12:30:17.133Z,60.15
2022-10-19T12:31:17.118Z,60.00
2022-10-19T12:32:17.113Z,62.83
2022-10-19T12:33:17.123Z,62.52
2022-10-19T12:34:17.115Z,61.78
2022-10-19T12:35:17.219Z,61.39
2022-10-19T12:36:17.072Z,62.36
2022-10-19T12:37:17.072Z,61.67
2022-10-19T12:38:17.067Z,61.93
2022-10-19T12:39:17.064Z,61.78
2022-10-19T12:40:17.062Z,63.17
2022-10-19T12:41:17.037Z,62.74
2022-10-19T12:42:17.038Z,62.78
2022-10-19T12:43:17.022Z,61.54
2022-10-19T12:44:17.107Z,63.47
2022-10-19T12:45:17.024Z,63.25
2022-10-19T12:46:17.003Z,61.79
2022-10-19T12:47:17.008Z,62.04
2022-10-19T12:48:17.023Z,61.93
2022-10-19T12:49:16.978Z,61.83
2022-10-19T12:50:17.009Z,60.00
2022-10-19T12:51:16.957Z,61.54
2022-10-19T12:52:16.972Z,59.90
2022-10-19T12:53:16.998Z,62.20
2022-10-19T12:54:16.947Z,61.79
2022-10-19T12:55:16.950Z,62.36
2022-10-19T12:56:16.923Z,60.02
2022-10-19T12:57:21.902Z,60.88
2022-10-19T12:58:17.906Z,60.17
2022-10-19T12:59:16.931Z,60.27
2022-10-19T13:00:16.896Z,61.34
2022-10-19T13:01:16.977Z,60.84
2022-10-19T13:02:16.882Z,62.29
2022-10-19T13:03:16.887Z,62.49
2022-10-19T13:04:16.892Z,61.74